Time;durP1;ratioP1;P1;durP2;ratioP2;P2;SDS_P1;SDS_P2;PMS_P1;PMS_P2;Temp;Humidity;BMP_temperature;BMP_pressure;BME280_temperature;BME280_humidity;BME280_pressure;Samples;Min_cycle;Max_cycle;Signal;HPM_P1;HPM_P2
2021/04/29 00:00:09;;;;;;;14.60;9.32;;;;;;;12.19;51.69;94911.16;5072614;28;20036;-67
2021/04/29 00:02:35;;;;;;;17.42;9.85;;;;;;;12.23;52.53;94911.25;5074319;28;20044;-67
2021/04/29 00:05:03;;;;;;;16.58;9.65;;;;;;;12.26;53.11;94905.81;5073320;28;20056;-67
2021/04/29 00:07:29;;;;;;;13.05;9.07;;;;;;;12.31;52.70;94920.31;5073387;28;20453;-67
2021/04/29 00:09:55;;;;;;;15.85;9.05;;;;;;;12.32;51.71;94921.91;5073127;28;20063;-67
2021/04/29 00:12:20;;;;;;;17.25;10.43;;;;;;;12.26;51.05;94932.31;5072789;28;20542;-67
2021/04/29 00:14:46;;;;;;;19.17;10.55;;;;;;;12.22;52.00;94943.19;5073663;28;20071;-68
2021/04/29 00:17:12;;;;;;;19.00;10.65;;;;;;;12.23;51.51;94939.31;5072459;28;20075;-67
2021/04/29 00:19:38;;;;;;;18.23;10.40;;;;;;;12.07;50.85;94946.81;5073971;28;20072;-68
2021/04/29 00:22:05;;;;;;;17.65;9.65;;;;;;;11.99;50.79;94958.72;5086223;28;20101;-67
2021/04/29 00:24:31;;;;;;;17.70;10.10;;;;;;;11.76;51.93;94948.53;5094303;28;20036;-67
2021/04/29 00:26:57;;;;;;;18.25;9.10;;;;;;;11.67;52.00;94950.69;5073205;28;20097;-67
2021/04/29 00:29:23;;;;;;;22.85;10.18;;;;;;;11.58;52.37;94955.56;5073102;28;20047;-67
2021/04/29 00:31:49;;;;;;;13.15;9.13;;;;;;;11.42;52.85;94965.72;5072753;28;20048;-67
2021/04/29 00:34:15;;;;;;;16.98;10.10;;;;;;;11.42;53.26;94976.63;5073168;28;20076;-67
2021/04/29 00:36:41;;;;;;;20.48;10.27;;;;;;;11.44;53.14;94977.09;5073418;28;20101;-68
2021/04/29 00:39:08;;;;;;;16.35;9.73;;;;;;;11.49;53.16;94971.34;5072284;28;20067;-68
2021/04/29 00:41:34;;;;;;;17.27;9.85;;;;;;;11.44;53.45;94979.81;5073153;28;20109;-67
2021/04/29 00:44:01;;;;;;;17.35;10.05;;;;;;;11.48;53.60;94984.19;5072361;28;20045;-67
2021/04/29 00:46:28;;;;;;;16.85;10.38;;;;;;;11.49;53.88;94982.25;5073058;28;20089;-67
2021/04/29 00:48:55;;;;;;;18.40;10.23;;;;;;;11.53;53.82;94982.31;5072070;28;20049;-68
2021/04/29 00:51:22;;;;;;;18.55;9.82;;;;;;;11.54;53.92;94994.78;5080491;28;20052;-67
2021/04/29 00:53:49;;;;;;;16.98;10.07;;;;;;;11.57;54.42;94997.59;5092252;28;20068;-68
2021/04/29 00:56:16;;;;;;;16.58;9.50;;;;;;;11.61;54.28;94987.56;5078742;28;20055;-67
2021/04/29 00:58:42;;;;;;;21.70;10.52;;;;;;;11.61;54.81;94990.28;5072300;28;20045;-68
2021/04/29 01:01:08;;;;;;;18.02;9.73;;;;;;;11.68;55.39;94990.44;5072115;28;20049;-67
2021/04/29 01:03:43;;;;;;;17.05;9.98;;;;;;;11.67;55.72;94993.53;5072533;28;20108;-67
2021/04/29 01:06:14;;;;;;;18.55;9.23;;;;;;;11.81;56.22;94993.03;5071805;28;20110;-67
2021/04/29 01:08:47;;;;;;;14.95;9.85;;;;;;;11.86;56.13;94995.50;5072773;28;20055;-67
2021/04/29 01:11:16;;;;;;;11.63;7.30;;;;;;;11.87;56.96;94995.13;5071185;28;20048;-67
2021/04/29 01:13:48;;;;;;;15.85;8.82;;;;;;;11.95;57.36;94993.34;5073157;28;20305;-67
2021/04/29 01:16:16;;;;;;;14.68;9.70;;;;;;;11.98;58.07;94995.34;5071315;28;20060;-67
2021/04/29 01:18:44;;;;;;;14.05;9.57;;;;;;;11.92;58.74;94992.13;5072522;28;20049;-67
2021/04/29 01:21:14;;;;;;;16.50;9.57;;;;;;;11.95;58.88;94993.34;5077984;28;20679;-68
2021/04/29 01:23:50;;;;;;;18.33;9.23;;;;;;;12.00;59.03;94999.28;5080328;28;20131;-67
2021/04/29 01:26:19;;;;;;;14.32;8.55;;;;;;;12.07;59.41;94998.66;5072073;28;20053;-67
2021/04/29 01:28:47;;;;;;;14.85;9.73;;;;;;;12.13;59.35;94999.94;5070601;28;20041;-67
2021/04/29 01:31:14;;;;;;;16.30;9.20;;;;;;;12.20;59.25;95005.53;5069837;28;20041;-68
2021/04/29 01:33:41;;;;;;;15.20;9.73;;;;;;;12.23;59.34;95013.00;5071455;28;20442;-68
2021/04/29 01:36:08;;;;;;;18.23;9.50;;;;;;;12.31;59.86;95011.19;5072035;28;20045;-67
2021/04/29 01:38:36;;;;;;;15.93;9.40;;;;;;;12.38;59.98;95016.00;5071553;28;20059;-68
2021/04/29 01:41:02;;;;;;;13.20;8.55;;;;;;;12.37;60.37;95017.13;5071509;28;20407;-68
2021/04/29 01:43:29;;;;;;;13.73;8.93;;;;;;;12.28;61.11;95018.16;5071523;28;20041;-68
2021/04/29 01:45:56;;;;;;;14.60;9.35;;;;;;;12.18;61.95;95018.75;5071554;28;20537;-67
2021/04/29 01:48:23;;;;;;;16.90;9.55;;;;;;;12.23;61.97;95023.91;5071351;28;20445;-67
2021/04/29 01:50:49;;;;;;;18.38;9.02;;;;;;;12.21;62.38;95023.47;5074786;28;20047;-67
2021/04/29 01:53:16;;;;;;;13.52;8.93;;;;;;;12.24;62.39;95025.50;5091820;28;20048;-67
2021/04/29 01:55:42;;;;;;;13.32;8.88;;;;;;;12.18;63.07;95029.66;5091213;28;20040;-67
2021/04/29 01:58:08;;;;;;;12.15;8.50;;;;;;;12.23;62.83;95023.91;5091921;28;20048;-67
2021/04/29 02:00:34;;;;;;;13.18;8.30;;;;;;;12.28;63.40;95029.09;5081040;28;20110;-67
2021/04/29 02:03:01;;;;;;;10.50;8.02;;;;;;;12.38;63.20;95021.47;5070884;28;20052;-67
2021/04/29 02:05:27;;;;;;;10.93;7.85;;;;;;;12.51;62.88;95017.41;5070857;28;20059;-67
2021/04/29 02:07:53;;;;;;;11.25;7.13;;;;;;;12.58;62.84;95020.28;5071140;28;20507;-67
2021/04/29 02:10:19;;;;;;;8.73;6.82;;;;;;;12.64;62.86;95016.09;5070857;28;20053;-67
2021/04/29 02:12:50;;;;;;;8.98;6.47;;;;;;;12.55;63.33;95026.47;5070884;28;20079;-67
2021/04/29 02:15:17;;;;;;;11.90;7.00;;;;;;;12.62;63.52;95021.09;5071377;28;20049;-67
2021/04/29 02:17:49;;;;;;;9.15;6.40;;;;;;;12.68;63.52;95019.66;5070386;28;20519;-68
2021/04/29 02:20:17;;;;;;;8.88;6.90;;;;;;;12.73;63.59;95032.22;5071449;28;20048;-67
2021/04/29 02:22:44;;;;;;;10.70;6.40;;;;;;;12.76;63.62;95021.38;5089740;28;20055;-68
2021/04/29 02:25:14;;;;;;;9.82;5.75;;;;;;;12.76;63.57;95024.09;5091018;28;20411;-67
2021/04/29 02:27:41;;;;;;;9.27;5.47;;;;;;;12.78;63.92;95019.06;5090708;28;20525;-67
2021/04/29 02:30:11;;;;;;;9.73;5.90;;;;;;;12.78;64.13;95013.59;5084763;28;20048;-68
2021/04/29 02:32:38;;;;;;;10.95;6.10;;;;;;;12.85;63.70;95021.13;5070965;28;20094;-68
2021/04/29 02:35:07;;;;;;;7.72;5.32;;;;;;;12.76;64.04;95018.63;5070085;28;20098;-67
2021/04/29 02:37:34;;;;;;;8.63;5.28;;;;;;;12.72;64.51;95020.50;5071023;28;20055;-67
2021/04/29 02:40:01;;;;;;;8.18;5.38;;;;;;;12.77;64.33;95017.47;5070094;28;20051;-67
2021/04/29 02:42:27;;;;;;;8.15;5.13;;;;;;;12.76;64.79;95020.59;5070594;28;20479;-67
2021/04/29 02:44:54;;;;;;;7.07;4.72;;;;;;;12.72;64.58;95020.50;5070024;28;20052;-67
2021/04/29 02:47:20;;;;;;;7.75;5.32;;;;;;;12.76;64.67;95024.09;5070289;28;20037;-67
2021/04/29 02:49:46;;;;;;;11.35;5.45;;;;;;;12.76;64.60;95021.38;5070206;28;20041;-68
2021/04/29 02:52:12;;;;;;;7.03;4.80;;;;;;;12.86;64.63;95021.91;5085637;28;20048;-68
2021/04/29 02:54:39;;;;;;;8.27;4.55;;;;;;;12.86;64.28;95014.50;5091322;28;20044;-68
2021/04/29 02:57:05;;;;;;;7.53;4.47;;;;;;;12.90;64.63;95018.09;5090002;28;20040;-67
2021/04/29 02:59:32;;;;;;;7.47;4.50;;;;;;;12.90;64.08;95018.09;5089443;28;20044;-67
2021/04/29 03:01:57;;;;;;;7.82;4.70;;;;;;;12.87;64.45;95023.50;5069606;28;20048;-67
2021/04/29 03:04:23;;;;;;;6.30;4.20;;;;;;;12.85;64.46;95017.63;5070523;28;20045;-68
2021/04/29 03:06:49;;;;;;;9.55;4.30;;;;;;;12.85;64.22;95023.09;5069521;28;20055;-67
2021/04/29 03:09:16;;;;;;;7.80;4.00;;;;;;;12.84;64.52;95016.00;5070487;28;20064;-67
2021/04/29 03:11:43;;;;;;;5.10;3.85;;;;;;;12.82;64.46;95018.34;5069724;28;20044;-67
2021/04/29 03:14:08;;;;;;;5.07;3.60;;;;;;;12.77;64.57;95031.13;5070013;28;20044;-67
2021/04/29 03:16:34;;;;;;;6.13;3.70;;;;;;;12.74;64.29;95029.16;5070053;28;20518;-68
2021/04/29 03:19:00;;;;;;;5.68;3.42;;;;;;;12.74;64.41;95037.34;5070268;28;20094;-67
2021/04/29 03:21:26;;;;;;;4.95;3.25;;;;;;;12.79;64.47;95041.72;5078647;28;20032;-67
2021/04/29 03:23:52;;;;;;;4.75;3.30;;;;;;;12.78;64.42;95040.91;5090079;28;20056;-67
2021/04/29 03:26:18;;;;;;;3.90;2.83;;;;;;;12.78;64.31;95040.13;5090115;28;20051;-67
2021/04/29 03:28:45;;;;;;;6.03;3.13;;;;;;;12.77;64.07;95047.53;5089513;28;20414;-67
2021/04/29 03:31:11;;;;;;;4.88;2.80;;;;;;;12.78;64.22;95049.09;5074954;28;20136;-67
2021/04/29 03:33:37;;;;;;;4.15;2.53;;;;;;;12.78;63.94;95046.38;5069314;28;20044;-67
2021/04/29 03:36:03;;;;;;;3.15;2.58;;;;;;;12.78;63.99;95049.09;5070275;28;20433;-67
2021/04/29 03:38:29;;;;;;;4.47;2.80;;;;;;;12.84;63.99;95054.25;5070660;28;20102;-67
2021/04/29 03:40:55;;;;;;;5.43;2.63;;;;;;;12.77;64.36;95050.25;5070186;28;20052;-67
2021/04/29 03:43:21;;;;;;;3.47;2.50;;;;;;;12.73;64.36;95060.31;5069127;28;20443;-67
2021/04/29 03:45:47;;;;;;;5.63;2.42;;;;;;;12.76;64.03;95047.91;5069772;28;20056;-67
2021/04/29 03:48:14;;;;;;;4.40;2.20;;;;;;;12.73;64.13;95060.31;5069523;28;20041;-67
2021/04/29 03:50:40;;;;;;;4.07;2.30;;;;;;;12.71;64.36;95068.09;5071863;28;20143;-67
2021/04/29 03:53:06;;;;;;;3.80;2.40;;;;;;;12.70;64.22;95066.53;5089873;28;20040;-67
2021/04/29 03:55:31;;;;;;;6.50;2.17;;;;;;;12.78;64.37;95062.75;5089377;28;20754;-67
2021/04/29 03:57:57;;;;;;;3.03;2.20;;;;;;;12.70;64.50;95065.75;5090639;28;20127;-67
2021/04/29 04:00:23;;;;;;;5.13;2.00;;;;;;;12.67;64.23;95077.38;5080398;28;20055;-67
2021/04/29 04:02:50;;;;;;;3.88;1.77;;;;;;;12.69;64.06;95075.88;5070346;28;20053;-67
2021/04/29 04:05:17;;;;;;;2.40;1.90;;;;;;;12.62;64.17;95073.00;5068865;28;20052;-67
2021/04/29 04:07:43;;;;;;;4.28;1.80;;;;;;;12.66;64.57;95073.88;5069938;28;20052;-67
2021/04/29 04:10:10;;;;;;;3.47;1.80;;;;;;;12.66;64.11;95079.31;5068951;28;20462;-68
2021/04/29 04:12:36;;;;;;;2.60;1.52;;;;;;;12.68;64.30;95079.75;5069319;28;20508;-67
2021/04/29 04:15:03;;;;;;;3.10;2.00;;;;;;;12.70;64.20;95085.66;5069438;28;20076;-67
2021/04/29 04:17:29;;;;;;;3.63;2.03;;;;;;;12.75;63.96;95085.34;5069024;28;20376;-67
2021/04/29 04:19:56;;;;;;;6.25;1.83;;;;;;;12.73;63.86;95087.63;5070217;28;20082;-67
2021/04/29 04:22:21;;;;;;;2.65;1.88;;;;;;;12.81;63.98;95088.56;5084672;28;20043;-67
2021/04/29 04:24:47;;;;;;;3.95;1.65;;;;;;;12.80;63.88;95093.25;5090505;28;20491;-68
2021/04/29 04:27:13;;;;;;;4.57;1.67;;;;;;;12.73;63.88;95093.09;5091582;28;20044;-67
2021/04/29 04:29:39;;;;;;;2.20;1.50;;;;;;;12.71;64.21;95089.16;5091305;28;20043;-67
2021/04/29 04:32:05;;;;;;;2.50;1.45;;;;;;;12.68;64.41;95093.41;5072492;28;20105;-67
2021/04/29 04:34:32;;;;;;;1.88;1.60;;;;;;;12.71;64.43;95102.81;5073332;28;20094;-67
2021/04/29 04:36:58;;;;;;;2.78;1.58;;;;;;;12.66;64.20;95103.91;5072875;28;20049;-68
2021/04/29 04:39:25;;;;;;;1.92;1.30;;;;;;;12.69;64.52;95108.66;5072231;28;20464;-67
2021/04/29 04:41:51;;;;;;;2.65;1.40;;;;;;;12.69;64.39;95108.66;5073120;28;20040;-67
2021/04/29 04:44:17;;;;;;;2.63;1.40;;;;;;;12.72;64.36;95112.59;5071989;28;20052;-67
2021/04/29 04:46:43;;;;;;;2.88;1.20;;;;;;;12.59;64.85;95108.44;5073327;28;20045;-68
2021/04/29 04:49:09;;;;;;;3.53;1.30;;;;;;;12.67;64.46;95115.63;5071722;28;20036;-67
2021/04/29 04:51:34;;;;;;;2.50;1.25;;;;;;;12.72;64.66;95118.84;5083666;28;20048;-67
2021/04/29 04:54:02;;;;;;;2.63;1.48;;;;;;;12.74;64.90;95116.56;5092482;28;20411;-68
2021/04/29 04:56:28;;;;;;;3.03;1.60;;;;;;;12.79;64.59;95129.91;5092947;28;20040;-67
2021/04/29 04:58:54;;;;;;;1.90;1.20;;;;;;;12.78;65.01;95133.00;5092626;28;20534;-67
2021/04/29 05:01:20;;;;;;;2.55;1.40;;;;;;;12.72;64.92;95129.75;5071530;28;20044;-68
2021/04/29 05:03:46;;;;;;;1.88;1.27;;;;;;;12.76;64.95;95138.81;5072697;28;20518;-68
2021/04/29 05:06:14;;;;;;;5.10;1.27;;;;;;;12.73;65.27;95136.81;5071633;28;20040;-67
2021/04/29 05:08:40;;;;;;;1.52;0.90;;;;;;;12.78;65.17;95144.69;5073028;28;20049;-67
2021/04/29 05:11:07;;;;;;;1.73;1.15;;;;;;;12.81;65.10;95137.75;5071099;28;20086;-67
2021/04/29 05:13:33;;;;;;;1.85;1.05;;;;;;;12.91;65.23;95147.28;5072943;28;20389;-67
2021/04/29 05:15:58;;;;;;;2.88;1.10;;;;;;;12.96;64.77;95144.25;5071912;28;20051;-68
2021/04/29 05:18:25;;;;;;;5.78;1.02;;;;;;;13.02;64.99;95149.06;5072444;28;20118;-67
2021/04/29 05:20:51;;;;;;;5.82;0.90;;;;;;;13.09;64.47;95142.94;5075515;28;20139;-68
2021/04/29 05:23:17;;;;;;;1.13;0.90;;;;;;;13.17;64.30;95149.31;5092156;28;20048;-67
2021/04/29 05:25:43;;;;;;;2.92;0.90;;;;;;;13.22;63.85;95160.00;5092213;28;20044;-67
2021/04/29 05:28:10;;;;;;;2.20;0.80;;;;;;;13.19;63.53;95153.25;5091494;28;20052;-67
2021/04/29 05:30:36;;;;;;;3.13;0.75;;;;;;;13.20;63.67;95160.31;5077345;28;20048;-67
2021/04/29 05:33:02;;;;;;;1.27;0.68;;;;;;;13.20;63.77;95162.25;5071212;28;20052;-68
2021/04/29 05:35:28;;;;;;;1.80;0.90;;;;;;;13.24;63.87;95160.41;5072393;28;20072;-67
2021/04/29 05:37:54;;;;;;;3.58;1.00;;;;;;;13.26;64.16;95164.38;5071097;28;20659;-67
2021/04/29 05:40:20;;;;;;;1.40;0.82;;;;;;;13.24;63.88;95166.66;5071910;28;20051;-67
2021/04/29 05:42:46;;;;;;;2.42;0.90;;;;;;;13.38;63.37;95159.88;5071061;28;20048;-68
2021/04/29 05:45:13;;;;;;;1.27;0.80;;;;;;;13.26;63.55;95164.38;5071650;28;20048;-67
2021/04/29 05:47:40;;;;;;;2.13;0.90;;;;;;;13.31;64.23;95155.88;5071186;28;20060;-68
2021/04/29 05:50:08;;;;;;;1.23;0.80;;;;;;;13.35;62.81;95155.13;5071381;28;20533;-68
2021/04/29 05:52:35;;;;;;;2.75;0.80;;;;;;;13.42;63.30;95167.00;5089678;28;20048;-68
2021/04/29 05:55:01;;;;;;;5.68;1.67;;;;;;;13.47;63.31;95163.16;5091462;28;20093;-67
2021/04/29 05:57:27;;;;;;;1.88;0.80;;;;;;;13.54;62.68;95155.06;5091725;28;20497;-68
2021/04/29 05:59:53;;;;;;;3.58;1.00;;;;;;;13.59;62.41;95165.69;5084497;28;20056;-67
2021/04/29 06:02:20;;;;;;;1.50;0.70;;;;;;;13.69;62.74;95159.63;5071287;28;20045;-68
2021/04/29 06:04:46;;;;;;;2.97;1.10;;;;;;;13.80;61.61;95165.25;5070691;28;20063;-68
2021/04/29 06:07:13;;;;;;;3.58;0.77;;;;;;;13.87;61.35;95172.78;5071404;28;20040;-68
2021/04/29 06:09:39;;;;;;;1.77;0.75;;;;;;;13.92;60.88;95175.97;5070770;28;20055;-68
2021/04/29 06:12:07;;;;;;;1.45;0.90;;;;;;;13.91;60.07;95176.34;5071127;28;20055;-67
2021/04/29 06:14:33;;;;;;;9.75;1.20;;;;;;;13.89;60.35;95184.16;5071180;28;20044;-76
2021/04/29 06:16:58;;;;;;;2.25;1.00;;;;;;;13.89;59.27;95179.47;5075641;28;20063;-76
2021/04/29 06:19:25;;;;;;;2.40;0.88;;;;;;;13.90;60.79;95183.00;5089404;28;20048;-73
2021/04/29 06:21:52;;;;;;;2.10;0.95;;;;;;;14.00;62.08;95190.56;5088329;28;20039;-72
2021/04/29 06:24:18;;;;;;;2.17;0.90;;;;;;;13.93;59.50;95184.97;5088346;28;20044;-72
2021/04/29 06:26:44;;;;;;;1.73;0.80;;;;;;;13.86;59.29;95185.66;5088364;28;20101;-72
2021/04/29 06:29:10;;;;;;;1.15;0.90;;;;;;;13.91;60.41;95196.31;5088160;28;20048;-72
2021/04/29 06:31:39;;;;;;;3.88;1.00;;;;;;;13.90;60.62;95202.16;5068105;28;20415;-72
2021/04/29 06:34:05;;;;;;;1.75;1.20;;;;;;;13.84;61.29;95201.66;5068635;28;20040;-71
2021/04/29 06:36:33;;;;;;;2.13;1.02;;;;;;;13.77;60.12;95204.28;5068019;28;20048;-72
2021/04/29 06:38:59;;;;;;;1.52;0.90;;;;;;;13.63;60.71;95215.00;5068450;28;20056;-71
2021/04/29 06:41:25;;;;;;;1.95;1.00;;;;;;;13.58;61.17;95221.56;5067923;28;20066;-71
2021/04/29 06:43:51;;;;;;;2.42;0.90;;;;;;;13.50;61.03;95228.06;5068348;28;20048;-71
2021/04/29 06:46:17;;;;;;;4.18;1.40;;;;;;;13.55;62.16;95235.94;5067637;28;20143;-72
2021/04/29 06:48:43;;;;;;;3.20;1.13;;;;;;;13.59;60.72;95236.81;5067392;28;20055;-72
2021/04/29 06:51:10;;;;;;;3.63;1.20;;;;;;;13.55;61.22;95235.94;5074380;28;20056;-72
2021/04/29 06:53:37;;;;;;;3.03;1.00;;;;;;;13.50;60.80;95239.00;5087649;28;20566;-72
2021/04/29 06:56:03;;;;;;;4.55;1.33;;;;;;;13.45;60.83;95239.28;5088208;28;20549;-72
2021/04/29 06:58:31;;;;;;;4.60;1.42;;;;;;;13.47;61.58;95245.19;5090107;28;20048;-71
2021/04/29 07:00:57;;;;;;;3.13;1.23;;;;;;;13.55;61.07;95241.41;5075913;28;20303;-71
2021/04/29 07:03:23;;;;;;;2.67;1.20;;;;;;;13.47;61.41;95247.94;5070024;28;20051;-70
2021/04/29 07:05:49;;;;;;;4.30;1.55;;;;;;;13.37;60.92;95248.53;5070610;28;20426;-71
2021/04/29 07:08:15;;;;;;;2.85;1.23;;;;;;;13.31;60.89;95265.22;5070168;28;20048;-71
2021/04/29 07:10:42;;;;;;;2.65;1.00;;;;;;;13.17;60.56;95258.66;5070441;28;20048;-71
2021/04/29 07:13:08;;;;;;;3.00;1.02;;;;;;;13.13;60.86;95268.72;5070420;28;20542;-71
2021/04/29 07:15:34;;;;;;;3.40;1.10;;;;;;;13.05;60.91;95273.28;5070106;28;20114;-70
2021/04/29 07:18:01;;;;;;;3.85;1.27;;;;;;;13.15;60.65;95269.16;5071070;28;20051;-71
2021/04/29 07:20:29;;;;;;;2.13;1.00;;;;;;;13.27;60.85;95274.50;5070124;28;20047;-71
2021/04/29 07:22:55;;;;;;;7.38;1.63;;;;;;;13.21;60.78;95273.19;5090945;28;20055;-71
2021/04/29 07:25:23;;;;;;;3.88;1.30;;;;;;;13.31;61.24;95270.69;5089607;28;20091;-71
2021/04/29 07:27:50;;;;;;;7.47;1.67;;;;;;;13.34;60.33;95273.84;5090631;28;20130;-70
2021/04/29 07:30:16;;;;;;;4.78;1.40;;;;;;;13.39;60.76;95279.81;5080454;28;20056;-71
2021/04/29 07:32:42;;;;;;;4.60;1.33;;;;;;;13.47;59.93;95280.75;5070009;28;20059;-71
2021/04/29 07:35:09;;;;;;;3.53;1.38;;;;;;;13.46;59.84;95281.88;5069864;28;20045;-70
2021/04/29 07:37:35;;;;;;;3.63;1.40;;;;;;;13.48;58.87;95293.28;5069894;28;20071;-71
2021/04/29 07:40:01;;;;;;;3.33;1.85;;;;;;;13.48;58.58;95301.47;5070766;28;20051;-71
2021/04/29 07:42:27;;;;;;;3.22;1.40;;;;;;;13.49;58.67;95303.03;5069198;28;20041;-71
2021/04/29 07:44:54;;;;;;;2.13;1.45;;;;;;;13.51;58.54;95306.19;5070345;28;20415;-71
2021/04/29 07:47:20;;;;;;;4.95;1.30;;;;;;;13.51;59.97;95312.47;5068968;28;20048;-71
2021/04/29 07:49:46;;;;;;;3.25;1.15;;;;;;;13.48;58.54;95317.88;5070653;28;20556;-70
2021/04/29 07:52:12;;;;;;;3.60;1.50;;;;;;;13.53;58.35;95314.84;5069417;28;20048;-72
2021/04/29 07:54:38;;;;;;;2.85;1.50;;;;;;;13.50;58.74;95321.03;5070001;28;20083;-71
2021/04/29 07:57:04;;;;;;;3.38;1.40;;;;;;;13.55;58.85;95324.25;5069465;28;20419;-71
2021/04/29 07:59:30;;;;;;;3.90;1.23;;;;;;;13.49;58.37;95320.25;5069296;28;20102;-72
2021/04/29 08:01:57;;;;;;;5.97;2.38;;;;;;;13.59;58.85;95321.59;5072983;28;20508;-72
2021/04/29 08:04:23;;;;;;;4.03;1.55;;;;;;;13.68;58.14;95321.38;5072898;28;20044;-72
2021/04/29 08:06:49;;;;;;;3.28;1.48;;;;;;;13.57;57.58;95327.44;5073669;28;20045;-70
2021/04/29 08:09:15;;;;;;;3.13;1.45;;;;;;;13.44;57.63;95333.41;5072303;28;20045;-71
2021/04/29 08:11:42;;;;;;;3.88;1.50;;;;;;;13.32;59.24;95332.44;5074663;28;20045;-71
2021/04/29 08:14:08;;;;;;;3.78;2.25;;;;;;;13.44;58.66;95342.41;5073003;28;20044;-71
2021/04/29 08:16:34;;;;;;;2.63;1.40;;;;;;;13.45;58.11;95345.94;5074000;28;20056;-71
2021/04/29 08:19:01;;;;;;;10.85;1.85;;;;;;;13.45;58.39;95341.25;5073376;28;20057;-71
2021/04/29 08:21:28;;;;;;;4.30;1.80;;;;;;;13.36;57.84;95342.63;5082198;28;20731;-71
2021/04/29 08:23:55;;;;;;;3.28;1.63;;;;;;;13.27;58.13;95346.38;5093954;28;20051;-70
2021/04/29 08:26:21;;;;;;;3.80;1.70;;;;;;;13.34;58.32;95350.41;5093157;28;20036;-71
2021/04/29 08:28:47;;;;;;;2.30;1.55;;;;;;;13.18;58.11;95351.22;5094128;28;20566;-71
2021/04/29 08:31:13;;;;;;;4.32;1.65;;;;;;;13.21;58.25;95355.22;5092202;28;20048;-71
2021/04/29 08:33:39;;;;;;;7.07;1.58;;;;;;;13.07;58.59;95358.41;5094272;28;20606;-71
2021/04/29 08:36:06;;;;;;;3.72;1.90;;;;;;;13.19;58.90;95362.97;5092969;28;20040;-71
2021/04/29 08:38:32;;;;;;;3.63;1.80;;;;;;;13.26;58.44;95358.47;5094176;28;20549;-71
2021/04/29 08:40:58;;;;;;;5.93;2.00;;;;;;;13.26;57.89;95363.94;5093006;28;20056;-70
2021/04/29 08:43:24;;;;;;;3.40;1.85;;;;;;;13.26;56.92;95361.22;5093114;28;20079;-71
2021/04/29 08:45:50;;;;;;;3.97;1.75;;;;;;;13.17;56.78;95363.31;5093316;28;20063;-71
2021/04/29 08:48:21;;;;;;;3.42;1.90;;;;;;;13.27;54.91;95367.47;5092887;28;20191;-70
2021/04/29 08:50:47;;;;;;;3.63;1.92;;;;;;;13.28;55.30;95380.75;5093486;28;20047;-70
2021/04/29 08:53:14;;;;;;;2.97;1.95;;;;;;;13.42;55.70;95374.03;5092274;28;20094;-70
2021/04/29 08:55:41;;;;;;;7.18;1.98;;;;;;;13.44;55.67;95383.44;5093710;28;20056;-70
2021/04/29 08:58:07;;;;;;;4.05;2.17;;;;;;;13.49;56.25;95387.84;5092113;28;20050;-70
2021/04/29 09:00:33;;;;;;;5.03;2.08;;;;;;;13.38;54.95;95384.09;5081789;28;20048;-71
2021/04/29 09:02:59;;;;;;;6.35;2.42;;;;;;;13.20;55.30;95389.94;5072369;28;20499;-71
2021/04/29 09:05:28;;;;;;;3.90;2.05;;;;;;;13.23;55.86;95389.25;5072928;28;20040;-70
2021/04/29 09:07:57;;;;;;;6.22;2.17;;;;;;;13.38;56.17;95384.09;5072263;28;20048;-70
2021/04/29 09:10:29;;;;;;;7.53;2.75;;;;;;;13.28;55.22;95375.31;5072326;28;20048;-70
2021/04/29 09:12:56;;;;;;;4.40;2.10;;;;;;;13.31;55.45;95390.19;5072416;28;20040;-70
2021/04/29 09:15:24;;;;;;;5.22;2.28;;;;;;;13.32;54.71;95387.09;5071818;28;20483;-69
2021/04/29 09:18:10;;;;;;;3.38;2.58;;;;;;;13.21;55.09;95375.16;5073034;28;20060;-70
2021/04/29 09:20:37;;;;;;;4.03;2.60;;;;;;;13.29;56.19;95371.41;5073698;28;20048;-70
2021/04/29 09:23:06;;;;;;;4.55;2.30;;;;;;;13.53;55.04;95375.03;5092607;28;20040;-70
2021/04/29 09:25:35;;;;;;;3.67;2.38;;;;;;;13.63;55.19;95368.97;5092427;28;20067;-71
2021/04/29 09:28:01;;;;;;;4.03;2.85;;;;;;;13.70;52.97;95366.38;5092511;28;20060;-70
2021/04/29 09:30:28;;;;;;;3.92;2.55;;;;;;;13.82;53.64;95370.88;5081076;28;20051;-70
2021/04/29 09:32:58;;;;;;;4.07;2.25;;;;;;;13.90;52.54;95363.59;5072496;28;20045;-70
2021/04/29 09:35:25;;;;;;;6.10;2.50;;;;;;;13.90;52.50;95360.88;5072170;28;20461;-70
2021/04/29 09:37:51;;;;;;;6.22;2.75;;;;;;;14.08;51.58;95367.44;5082245;28;20051;-71
2021/04/29 09:40:23;;;;;;;3.78;2.90;;;;;;;14.19;51.21;95359.41;5089825;28;20040;-70
2021/04/29 09:42:50;;;;;;;6.47;3.00;;;;;;;14.08;50.44;95361.97;5088671;28;20556;-70
2021/04/29 09:45:18;;;;;;;5.82;3.15;;;;;;;14.08;49.84;95373.69;5089421;28;20055;-71
2021/04/29 09:47:59;;;;;;;6.10;2.83;;;;;;;14.19;51.77;95368.41;5088939;28;20048;-71
2021/04/29 09:50:27;;;;;;;5.20;2.95;;;;;;;14.34;50.79;95370.25;5088635;28;20051;-71
2021/04/29 09:53:00;;;;;;;4.75;2.65;;;;;;;14.54;51.25;95370.19;5089130;28;20059;-70
2021/04/29 09:55:28;;;;;;;6.53;2.95;;;;;;;14.61;49.82;95373.03;5088489;28;20054;-71
2021/04/29 09:58:09;;;;;;;5.72;2.85;;;;;;;14.30;48.63;95383.09;5089846;28;20582;-70
2021/04/29 10:00:35;;;;;;;8.00;3.40;;;;;;;14.34;49.68;95380.41;5075982;28;20131;-71
2021/04/29 10:03:02;;;;;;;8.35;3.30;;;;;;;14.27;48.62;95372.06;5069358;28;20077;-71
2021/04/29 10:05:29;;;;;;;14.82;3.42;;;;;;;14.21;50.46;95376.28;5068109;28;20040;-71
2021/04/29 10:07:55;;;;;;;5.78;3.25;;;;;;;14.33;49.42;95373.34;5068733;28;20064;-71
2021/04/29 10:10:22;;;;;;;7.60;3.35;;;;;;;14.52;49.97;95369.78;5067935;28;20052;-71
2021/04/29 10:12:49;;;;;;;6.03;3.38;;;;;;;14.63;49.24;95370.75;5068618;28;20071;-71
2021/04/29 10:15:16;;;;;;;5.60;3.10;;;;;;;14.79;48.76;95378.81;5068509;28;20060;-72
2021/04/29 10:17:42;;;;;;;6.65;4.05;;;;;;;14.78;47.04;95371.75;5068346;28;20052;-71
2021/04/29 10:20:14;;;;;;;7.70;3.70;;;;;;;14.86;47.65;95363.25;5067935;28;20052;-72
2021/04/29 10:22:41;;;;;;;8.02;3.83;;;;;;;15.06;47.20;95361.19;5086712;28;20044;-71
2021/04/29 10:25:08;;;;;;;5.68;3.83;;;;;;;15.14;46.52;95357.41;5088107;28;20063;-71
2021/04/29 10:27:34;;;;;;;6.85;4.30;;;;;;;15.09;45.75;95365.16;5087993;28;20060;-71
2021/04/29 10:30:08;;;;;;;6.78;3.97;;;;;;;15.06;45.16;95368.63;5081437;28;20553;-71
2021/04/29 10:32:37;;;;;;;8.73;4.20;;;;;;;15.01;45.98;95366.22;5068101;28;20052;-70
2021/04/29 10:35:15;;;;;;;7.10;4.38;;;;;;;15.18;47.31;95362.91;5067570;28;20061;-71
2021/04/29 10:37:52;;;;;;;7.88;3.70;;;;;;;15.13;44.33;95371.47;5068491;28;20045;-71
2021/04/29 10:40:29;;;;;;;9.00;4.40;;;;;;;14.85;45.70;95364.41;5066669;28;20053;-70
2021/04/29 10:42:55;;;;;;;7.18;3.92;;;;;;;14.83;46.15;95364.00;5068448;28;20057;-70
2021/04/29 10:45:21;;;;;;;5.95;3.85;;;;;;;14.86;46.61;95373.44;5066674;28;20052;-70
2021/04/29 10:47:48;;;;;;;15.85;4.97;;;;;;;14.95;46.74;95365.75;5068557;28;20131;-70
2021/04/29 10:50:15;;;;;;;7.05;3.90;;;;;;;15.01;45.12;95368.94;5067225;28;20079;-71
2021/04/29 10:52:49;;;;;;;6.03;4.00;;;;;;;15.08;45.50;95363.56;5087408;28;20060;-70
2021/04/29 10:55:23;;;;;;;7.57;4.07;;;;;;;15.20;46.06;95360.59;5087558;28;20048;-71
2021/04/29 10:57:49;;;;;;;8.38;3.83;;;;;;;15.33;46.04;95358.41;5087543;28;20052;-71
2021/04/29 11:00:16;;;;;;;6.45;4.50;;;;;;;15.44;45.22;95359.31;5078441;28;20052;-72
2021/04/29 11:02:42;;;;;;;7.07;4.32;;;;;;;15.34;45.25;95357.25;5067438;28;20052;-71
2021/04/29 11:05:23;;;;;;;10.48;4.68;;;;;;;15.25;44.19;95357.53;5067790;28;20695;-71
2021/04/29 11:07:49;;;;;;;7.43;4.28;;;;;;;15.27;44.78;95354.41;5067601;28;20522;-71
2021/04/29 11:10:17;;;;;;;8.25;4.30;;;;;;;15.37;44.96;95359.25;5067293;28;20056;-71
2021/04/29 11:12:48;;;;;;;7.10;3.97;;;;;;;15.45;44.01;95360.91;5068132;28;20052;-71
2021/04/29 11:15:27;;;;;;;5.78;3.65;;;;;;;15.40;44.19;95359.31;5066958;28;20045;-71
2021/04/29 11:18:01;;;;;;;6.95;4.25;;;;;;;15.41;43.73;95354.59;5067685;28;20052;-71
2021/04/29 11:20:28;;;;;;;7.13;3.90;;;;;;;15.47;43.14;95355.84;5066995;28;20506;-71
2021/04/29 11:22:55;;;;;;;8.15;3.72;;;;;;;15.56;43.37;95358.31;5087935;28;20043;-70
2021/04/29 11:25:21;;;;;;;10.48;4.35;;;;;;;15.58;43.69;95348.53;5086861;28;20043;-71
2021/04/29 11:27:53;;;;;;;8.32;4.38;;;;;;;15.71;44.55;95340.84;5089194;28;20059;-70
2021/04/29 11:30:21;;;;;;;10.37;4.53;;;;;;;15.84;43.22;95350.41;5079792;28;20435;-71